createdAt,value
2022-12-06T00:02:12.733Z,542.42
2022-12-06T00:04:39.914Z,536.28
2022-12-06T00:07:07.178Z,516.17
2022-12-06T00:09:34.264Z,520.13
2022-12-06T00:12:01.444Z,555.90
2022-12-06T00:14:28.590Z,536.75
2022-12-06T00:16:55.733Z,548.53
2022-12-06T00:19:23.395Z,522.00
2022-12-06T00:21:50.550Z,530.17
2022-12-06T00:24:18.558Z,529.85
2022-12-06T00:26:46.059Z,552.22
2022-12-06T00:29:17.265Z,560.97
2022-12-06T00:31:44.436Z,516.17
2022-12-06T00:34:30.387Z,522.07
2022-12-06T00:36:57.499Z,525.37
2022-12-06T00:39:24.591Z,504.07
2022-12-06T00:41:51.700Z,507.30
2022-12-06T00:44:18.937Z,485.63
2022-12-06T00:46:46.005Z,492.30
2022-12-06T00:49:13.161Z,507.37
2022-12-06T00:51:40.264Z,534.50
2022-12-06T00:54:07.497Z,550.53
2022-12-06T00:56:35.833Z,555.77
2022-12-06T00:59:02.909Z,500.37
2022-12-06T01:01:30.669Z,502.30
2022-12-06T01:03:58.725Z,509.30
2022-12-06T01:06:28.025Z,509.57
2022-12-06T01:08:55.635Z,494.67
2022-12-06T01:11:22.796Z,491.80
2022-12-06T01:13:49.908Z,503.75
2022-12-06T01:16:18.660Z,496.77
2022-12-06T01:18:46.143Z,477.25
2022-12-06T01:21:14.388Z,459.63
2022-12-06T01:23:41.463Z,469.93
2022-12-06T01:26:08.617Z,458.23
2022-12-06T01:28:35.707Z,413.50
2022-12-06T01:31:06.954Z,404.20
2022-12-06T01:33:34.219Z,426.30
2022-12-06T01:36:01.347Z,408.93
2022-12-06T01:38:28.434Z,448.63
2022-12-06T01:40:55.555Z,460.33
2022-12-06T01:43:38.637Z,454.20
2022-12-06T01:46:08.151Z,449.65
2022-12-06T01:48:35.447Z,435.77
2022-12-06T01:51:02.523Z,435.23
2022-12-06T01:53:29.633Z,407.63
2022-12-06T01:55:56.731Z,404.88
2022-12-06T01:58:24.631Z,394.17
2022-12-06T02:00:51.762Z,444.57
2022-12-06T02:03:20.178Z,441.70
2022-12-06T02:05:47.258Z,421.33
2022-12-06T02:08:14.439Z,433.97
2022-12-06T02:10:41.590Z,429.87
2022-12-06T02:13:08.715Z,422.60
2022-12-06T02:15:54.869Z,473.07
2022-12-06T02:18:31.118Z,391.87
2022-12-06T02:21:06.962Z,414.37
2022-12-06T02:23:40.242Z,412.15
2022-12-06T02:26:23.082Z,443.07
2022-12-06T02:29:02.478Z,392.58
2022-12-06T02:31:31.576Z,434.33
2022-12-06T02:34:00.420Z,419.43
2022-12-06T02:36:28.616Z,453.53
2022-12-06T02:38:59.284Z,436.50
2022-12-06T02:41:27.342Z,448.87
2022-12-06T02:43:58.854Z,477.00
2022-12-06T02:46:29.747Z,459.27
2022-12-06T02:48:57.381Z,445.60
2022-12-06T02:51:24.506Z,451.67
2022-12-06T02:53:52.261Z,420.77
2022-12-06T02:56:19.524Z,422.20
2022-12-06T02:58:46.730Z,410.90
2022-12-06T03:01:15.433Z,354.63
2022-12-06T03:03:44.157Z,353.53
2022-12-06T03:06:15.467Z,295.63
2022-12-06T03:08:45.550Z,295.93
2022-12-06T03:11:12.631Z,337.87
2022-12-06T03:14:03.948Z,348.17
2022-12-06T03:16:33.432Z,345.13
2022-12-06T03:19:36.126Z,301.23
2022-12-06T03:22:09.655Z,352.10
2022-12-06T03:24:37.249Z,339.90
2022-12-06T03:27:08.545Z,346.47
2022-12-06T03:29:36.122Z,281.97
2022-12-06T03:32:03.703Z,314.80
2022-12-06T03:34:31.660Z,310.40
2022-12-06T03:36:58.878Z,323.53
2022-12-06T03:39:30.457Z,330.53
2022-12-06T03:41:58.118Z,312.73
2022-12-06T03:44:25.698Z,299.23
2022-12-06T03:47:01.078Z,312.10
2022-12-06T03:49:36.154Z,325.60
2022-12-06T03:52:03.304Z,355.67
2022-12-06T03:54:30.378Z,333.33
2022-12-06T03:56:57.463Z,376.37
2022-12-06T03:59:24.589Z,323.53
2022-12-06T04:01:51.790Z,325.35
2022-12-06T04:04:19.058Z,371.73
2022-12-06T04:06:46.224Z,330.65
2022-12-06T04:09:31.806Z,352.60
2022-12-06T04:11:58.916Z,316.65
2022-12-06T04:14:39.155Z,324.57
2022-12-06T04:17:24.937Z,328.57
2022-12-06T04:19:52.366Z,324.60
2022-12-06T04:22:37.939Z,299.80
2022-12-06T04:25:05.125Z,307.25
2022-12-06T04:27:50.696Z,267.73
2022-12-06T04:30:36.706Z,315.40
2022-12-06T04:33:22.751Z,275.77
2022-12-06T04:36:08.608Z,293.73
2022-12-06T04:38:42.332Z,272.50
2022-12-06T04:41:12.452Z,264.13
2022-12-06T04:43:42.486Z,273.83
2022-12-06T04:46:10.141Z,243.30
2022-12-06T04:48:37.252Z,261.77
2022-12-06T04:51:04.445Z,268.20
2022-12-06T04:53:31.530Z,287.80
2022-12-06T04:55:58.698Z,290.58
2022-12-06T04:58:25.824Z,268.25
2022-12-06T05:00:53.259Z,295.63
2022-12-06T05:03:20.438Z,277.13
2022-12-06T05:05:47.586Z,298.58
2022-12-06T05:08:14.779Z,284.53
2022-12-06T05:10:41.965Z,287.57
2022-12-06T05:13:10.427Z,263.02
2022-12-06T05:15:37.620Z,263.80
2022-12-06T05:18:04.775Z,266.00
2022-12-06T05:20:31.918Z,288.10
2022-12-06T05:22:58.993Z,301.48
2022-12-06T05:25:26.105Z,278.60
2022-12-06T05:27:53.217Z,289.93
2022-12-06T05:30:20.361Z,243.30
2022-12-06T05:32:50.274Z,289.98
2022-12-06T05:35:19.687Z,272.90
2022-12-06T05:37:46.756Z,295.27
2022-12-06T05:40:14.045Z,269.10
2022-12-06T05:42:41.439Z,285.10
2022-12-06T05:45:09.110Z,287.27
2022-12-06T05:47:36.217Z,287.90
2022-12-06T05:50:03.586Z,256.40
2022-12-06T05:52:30.709Z,280.27
2022-12-06T05:54:57.791Z,268.73
2022-12-06T05:57:24.922Z,269.40
2022-12-06T05:59:52.000Z,273.67
2022-12-06T06:02:19.192Z,253.93
2022-12-06T06:04:46.407Z,239.83
2022-12-06T06:07:13.534Z,236.07
2022-12-06T06:09:40.632Z,223.43
2022-12-06T06:12:12.281Z,204.17
2022-12-06T06:14:39.857Z,217.07
2022-12-06T06:17:07.531Z,219.47
2022-12-06T06:19:34.729Z,282.83
2022-12-06T06:22:01.984Z,228.47
2022-12-06T06:24:29.067Z,270.07
2022-12-06T06:26:56.201Z,276.73
2022-12-06T06:29:23.282Z,258.40
2022-12-06T06:31:50.382Z,256.73
2022-12-06T06:34:17.603Z,258.70
2022-12-06T06:36:46.127Z,253.60
2022-12-06T06:39:13.428Z,223.17
2022-12-06T06:41:40.525Z,238.83
2022-12-06T06:44:07.592Z,289.20
2022-12-06T06:46:34.747Z,252.07
2022-12-06T06:49:01.890Z,301.90
2022-12-06T06:51:29.021Z,317.00
2022-12-06T06:53:56.109Z,278.03
2022-12-06T06:56:23.271Z,284.23
2022-12-06T06:58:50.363Z,316.03
2022-12-06T07:01:18.900Z,269.57
2022-12-06T07:03:46.070Z,291.03
2022-12-06T07:06:13.153Z,272.33
2022-12-06T07:08:40.400Z,293.90
2022-12-06T07:11:07.594Z,311.70
2022-12-06T07:13:34.709Z,313.42
2022-12-06T07:16:03.475Z,329.33
2022-12-06T07:18:30.597Z,262.58
2022-12-06T07:21:01.339Z,301.17
2022-12-06T07:23:28.560Z,309.33
2022-12-06T07:26:02.308Z,307.03
2022-12-06T07:28:29.637Z,282.23
2022-12-06T07:30:56.914Z,296.13
2022-12-06T07:33:24.115Z,307.83
2022-12-06T07:38:49.100Z,282.27
2022-12-06T07:41:35.036Z,305.90
2022-12-06T07:44:21.146Z,295.80
2022-12-06T07:46:48.325Z,285.23
2022-12-06T07:49:16.023Z,297.05
2022-12-06T07:51:43.589Z,311.43
2022-12-06T07:54:10.716Z,284.27
2022-12-06T07:56:37.969Z,281.70
2022-12-06T07:59:05.153Z,299.40
2022-12-06T08:01:32.385Z,300.58
2022-12-06T08:04:00.551Z,330.20
2022-12-06T08:06:27.814Z,347.23
2022-12-06T08:08:54.955Z,321.23
2022-12-06T08:11:22.886Z,315.10
2022-12-06T08:13:50.073Z,294.50
2022-12-06T08:16:17.403Z,313.75
2022-12-06T08:18:44.560Z,322.25
2022-12-06T08:21:11.799Z,334.63
2022-12-06T08:23:38.941Z,299.85
2022-12-06T08:26:09.696Z,364.70
2022-12-06T08:28:37.151Z,331.88
2022-12-06T08:31:14.220Z,314.13
2022-12-06T08:33:41.356Z,299.10
2022-12-06T08:36:18.355Z,331.17
2022-12-06T08:38:45.485Z,319.63
2022-12-06T08:41:51.390Z,323.40
2022-12-06T08:44:18.655Z,330.83
2022-12-06T08:46:45.895Z,307.15
2022-12-06T08:49:13.192Z,350.00
2022-12-06T08:51:40.451Z,349.80
2022-12-06T08:54:08.028Z,333.00
2022-12-06T08:56:35.118Z,338.80
2022-12-06T08:59:02.277Z,302.48
2022-12-06T09:01:35.744Z,291.48
2022-12-06T09:04:04.561Z,293.92
2022-12-06T09:06:31.741Z,291.73
2022-12-06T09:08:58.853Z,302.40
2022-12-06T09:11:26.224Z,303.88
2022-12-06T09:13:53.318Z,360.83
2022-12-06T09:16:21.878Z,313.20
2022-12-06T09:18:49.123Z,301.97
2022-12-06T09:21:17.262Z,292.92
2022-12-06T09:23:44.480Z,305.52
2022-12-06T09:26:11.669Z,335.55
2022-12-06T09:28:39.506Z,337.20
2022-12-06T09:31:07.045Z,341.25
2022-12-06T09:33:34.298Z,330.08
2022-12-06T09:36:05.672Z,348.17
2022-12-06T09:38:32.829Z,318.45
2022-12-06T09:41:12.350Z,317.08
2022-12-06T09:43:55.480Z,320.25
2022-12-06T09:46:35.952Z,304.40
2022-12-06T09:49:03.046Z,303.58
2022-12-06T09:51:42.212Z,312.08
2022-12-06T09:54:24.773Z,312.02
2022-12-06T09:56:55.131Z,318.77
2022-12-06T09:59:34.554Z,358.55
2022-12-06T10:02:21.171Z,401.35
2022-12-06T10:04:54.370Z,367.33
2022-12-06T10:07:24.256Z,338.88
2022-12-06T10:10:09.958Z,315.48
2022-12-06T10:12:46.385Z,357.50
2022-12-06T10:15:16.563Z,431.98
2022-12-06T10:17:52.831Z,407.50
2022-12-06T10:20:22.717Z,364.27
2022-12-06T10:22:55.790Z,348.63
2022-12-06T10:25:24.972Z,318.48
2022-12-06T10:27:56.501Z,259.23
2022-12-06T10:30:23.577Z,269.05
2022-12-06T10:33:16.966Z,225.95
2022-12-06T10:36:00.036Z,243.90
2022-12-06T10:38:33.837Z,206.88
2022-12-06T10:41:00.985Z,194.82
2022-12-06T10:43:57.293Z,231.85
2022-12-06T10:46:45.969Z,272.55
2022-12-06T10:49:20.448Z,259.50
2022-12-06T10:51:54.643Z,261.10
2022-12-06T10:54:27.781Z,286.23
2022-12-06T10:56:54.917Z,269.77
2022-12-06T10:59:28.091Z,226.82
2022-12-06T11:01:55.773Z,200.60
2022-12-06T11:04:26.735Z,208.10
2022-12-06T11:06:55.147Z,251.55
2022-12-06T11:09:40.023Z,258.00
2022-12-06T11:12:31.739Z,269.02
2022-12-06T11:15:18.287Z,220.10
2022-12-06T11:17:50.645Z,245.13
2022-12-06T11:20:25.431Z,251.25
2022-12-06T11:23:12.967Z,207.38
2022-12-06T11:25:40.608Z,204.00
2022-12-06T11:28:21.377Z,151.35
2022-12-06T11:30:50.118Z,156.00
2022-12-06T11:33:17.320Z,143.75
2022-12-06T11:35:45.033Z,82.18
2022-12-06T11:38:12.375Z,66.05
2022-12-06T11:40:42.789Z,51.28
2022-12-06T11:43:11.910Z,57.03
2022-12-06T11:45:39.947Z,78.65
2022-12-06T11:48:19.887Z,45.20
2022-12-06T11:50:47.412Z,57.80
2022-12-06T11:53:17.003Z,54.72
2022-12-06T11:55:44.806Z,44.40
2022-12-06T11:58:11.870Z,35.20
2022-12-06T12:00:39.044Z,36.63
2022-12-06T12:03:06.208Z,62.75
2022-12-06T12:05:38.770Z,60.10
2022-12-06T12:08:07.300Z,53.92
2022-12-06T12:10:38.581Z,32.92
2022-12-06T12:13:30.161Z,19.35
2022-12-06T12:16:01.473Z,14.15
2022-12-06T12:18:29.809Z,14.07
2022-12-06T12:20:57.025Z,11.13
2022-12-06T12:23:28.747Z,10.07
2022-12-06T12:26:14.415Z,9.38
2022-12-06T12:28:42.058Z,11.00
2022-12-06T12:31:18.712Z,9.80
2022-12-06T12:33:45.953Z,9.25
2022-12-06T12:36:28.907Z,15.88
2022-12-06T12:38:56.678Z,15.32
2022-12-06T12:41:26.508Z,24.85
2022-12-06T12:44:28.568Z,19.75
2022-12-06T12:46:45.772Z,16.20
2022-12-06T12:49:29.520Z,19.75
2022-12-06T12:51:56.899Z,24.02
2022-12-06T12:54:24.243Z,27.77
2022-12-06T12:56:51.475Z,30.80
2022-12-06T12:59:19.376Z,36.75
2022-12-06T13:01:52.390Z,31.40
2022-12-06T13:04:21.598Z,40.33
2022-12-06T13:07:05.393Z,41.28
2022-12-06T13:09:33.878Z,36.67
2022-12-06T13:12:05.330Z,42.17
2022-12-06T13:14:32.501Z,49.60
2022-12-06T13:17:00.842Z,56.47
2022-12-06T13:19:41.311Z,52.40
2022-12-06T13:22:11.322Z,35.42
2022-12-06T13:24:38.909Z,35.28
2022-12-06T13:27:07.936Z,34.03
2022-12-06T13:29:39.589Z,24.08
2022-12-06T13:32:12.629Z,16.80
2022-12-06T13:34:40.487Z,13.13
2022-12-06T13:37:25.813Z,8.95
2022-12-06T13:39:52.878Z,6.93
2022-12-06T13:42:35.307Z,4.72
2022-12-06T13:45:02.937Z,13.32
2022-12-06T13:47:30.019Z,15.63
2022-12-06T13:50:00.777Z,8.82
2022-12-06T13:52:43.266Z,12.52
2022-12-06T13:55:25.600Z,16.60
2022-12-06T13:57:55.741Z,27.08
2022-12-06T14:00:45.897Z,14.40
2022-12-06T14:03:19.091Z,13.18
2022-12-06T14:06:14.034Z,17.75
2022-12-06T14:08:46.877Z,28.43
2022-12-06T14:11:17.150Z,26.75
2022-12-06T14:13:48.544Z,26.50
2022-12-06T14:16:27.718Z,18.52
2022-12-06T14:18:54.830Z,14.23
2022-12-06T14:21:23.880Z,16.17
2022-12-06T14:23:51.171Z,41.28
2022-12-06T14:26:21.420Z,30.60
2022-12-06T14:28:48.971Z,28.75
2022-12-06T14:31:23.728Z,20.30
2022-12-06T14:33:50.975Z,24.38
2022-12-06T14:36:20.098Z,21.95
2022-12-06T14:39:10.599Z,24.50
2022-12-06T14:41:56.968Z,18.77
2022-12-06T14:44:31.739Z,24.08
2022-12-06T14:46:58.940Z,28.90
2022-12-06T14:49:44.794Z,30.17
2022-12-06T14:52:18.526Z,23.98
2022-12-06T14:54:45.749Z,24.42
2022-12-06T14:57:26.227Z,29.55
2022-12-06T15:00:15.195Z,21.45
2022-12-06T15:02:58.710Z,25.20
2022-12-06T15:05:31.961Z,18.57
2022-12-06T15:07:59.203Z,11.20
2022-12-06T15:10:30.109Z,9.23
2022-12-06T15:13:07.035Z,12.60
2022-12-06T15:15:41.385Z,15.03
2022-12-06T15:18:13.260Z,22.70
2022-12-06T15:20:40.456Z,44.28
2022-12-06T15:23:26.076Z,15.60
2022-12-06T15:25:53.178Z,12.02
2022-12-06T15:28:21.664Z,53.30
2022-12-06T15:30:49.208Z,48.27
2022-12-06T15:33:19.846Z,51.67
2022-12-06T15:35:47.007Z,54.77
2022-12-06T15:38:14.206Z,55.60
2022-12-06T15:40:41.903Z,52.87
2022-12-06T15:43:21.230Z,54.80
2022-12-06T15:45:48.326Z,66.27
2022-12-06T15:48:15.430Z,50.13
2022-12-06T15:50:42.597Z,24.47
2022-12-06T15:53:13.273Z,20.90
2022-12-06T15:55:40.349Z,27.57
2022-12-06T15:58:07.471Z,21.17
2022-12-06T16:00:34.565Z,28.02
2022-12-06T16:03:02.870Z,32.73
2022-12-06T16:05:30.086Z,26.30
2022-12-06T16:07:57.299Z,30.90
2022-12-06T16:10:37.140Z,30.03
2022-12-06T16:13:21.512Z,21.07
2022-12-06T16:15:48.699Z,21.47
2022-12-06T16:18:15.908Z,42.80
2022-12-06T16:20:43.137Z,60.67
2022-12-06T16:23:56.536Z,55.70
2022-12-06T16:26:19.738Z,30.80
2022-12-06T16:28:46.809Z,39.13
2022-12-06T16:31:14.232Z,38.67
2022-12-06T16:33:41.474Z,36.90
2022-12-06T16:36:12.380Z,35.33
2022-12-06T16:38:39.581Z,138.77
2022-12-06T16:41:11.181Z,77.57
2022-12-06T16:43:38.264Z,53.40
2022-12-06T16:46:24.321Z,43.73
2022-12-06T16:48:55.728Z,51.23
2022-12-06T16:51:23.971Z,30.43
2022-12-06T16:53:51.173Z,27.20
2022-12-06T16:56:18.281Z,12.03
2022-12-06T16:58:45.623Z,22.13
2022-12-06T17:01:22.031Z,28.27
2022-12-06T17:04:08.815Z,27.33
2022-12-06T17:06:36.132Z,30.63
2022-12-06T17:09:03.231Z,25.67
2022-12-06T17:11:50.048Z,18.77
2022-12-06T17:14:17.220Z,21.40
2022-12-06T17:16:44.586Z,25.20
2022-12-06T17:19:13.532Z,29.27
2022-12-06T17:21:40.626Z,29.37
2022-12-06T17:24:07.873Z,68.77
2022-12-06T17:26:35.027Z,58.87
2022-12-06T17:29:02.382Z,53.13
2022-12-06T17:31:29.682Z,42.70
2022-12-06T17:33:57.930Z,23.97
2022-12-06T17:36:25.757Z,19.23
2022-12-06T17:38:57.435Z,14.30
2022-12-06T17:41:49.952Z,12.30
2022-12-06T17:44:18.833Z,16.23
2022-12-06T17:46:45.942Z,31.27
2022-12-06T17:49:13.693Z,23.50
2022-12-06T17:51:40.839Z,32.30
2022-12-06T17:54:09.575Z,60.80
2022-12-06T17:56:36.807Z,65.57
2022-12-06T17:59:04.927Z,17.63
2022-12-06T18:01:58.009Z,22.03
2022-12-06T18:04:19.180Z,22.63
2022-12-06T18:06:46.294Z,19.97
2022-12-06T18:09:14.222Z,17.73
2022-12-06T18:11:41.378Z,17.97
2022-12-06T18:14:08.489Z,17.07
2022-12-06T18:16:36.301Z,21.13
2022-12-06T18:19:08.780Z,23.67
2022-12-06T18:21:36.607Z,33.80
2022-12-06T18:24:22.120Z,36.23
2022-12-06T18:26:51.080Z,35.53
2022-12-06T18:29:19.355Z,26.83
2022-12-06T18:31:46.573Z,21.13
2022-12-06T18:34:14.004Z,23.13
2022-12-06T18:36:41.177Z,139.77
2022-12-06T18:39:14.419Z,117.63
2022-12-06T18:41:42.379Z,70.73
2022-12-06T18:44:09.803Z,79.70
2022-12-06T18:46:38.777Z,49.73
2022-12-06T18:49:06.341Z,27.87
2022-12-06T18:51:33.797Z,46.70
2022-12-06T18:54:02.394Z,28.63
2022-12-06T18:56:32.725Z,36.03
2022-12-06T18:59:00.277Z,18.13
2022-12-06T19:01:28.521Z,17.13
2022-12-06T19:03:55.970Z,16.73
2022-12-06T19:06:24.212Z,19.13
2022-12-06T19:08:54.773Z,14.63
2022-12-06T19:11:22.095Z,14.70
2022-12-06T19:13:53.362Z,15.63
2022-12-06T19:16:21.694Z,15.87
2022-12-06T19:18:48.905Z,12.20
2022-12-06T19:21:16.076Z,11.70
2022-12-06T19:23:43.208Z,12.40
2022-12-06T19:26:10.343Z,10.70
2022-12-06T19:28:38.406Z,8.87
2022-12-06T19:31:05.946Z,11.23
2022-12-06T19:33:40.044Z,9.97
2022-12-06T19:36:12.470Z,9.23
2022-12-06T19:38:39.551Z,10.20
2022-12-06T19:41:07.115Z,14.20
2022-12-06T19:43:52.631Z,9.93
2022-12-06T19:46:21.469Z,17.50
2022-12-06T19:48:49.017Z,16.63
2022-12-06T19:51:16.246Z,15.17
2022-12-06T19:53:43.447Z,17.07
2022-12-06T19:56:11.436Z,14.13
2022-12-06T19:58:39.200Z,27.47
2022-12-06T20:01:09.894Z,23.43
2022-12-06T20:03:37.077Z,20.73
2022-12-06T20:06:04.882Z,17.57
2022-12-06T20:08:32.215Z,13.43
2022-12-06T20:11:02.980Z,17.97
2022-12-06T20:13:30.189Z,16.03
2022-12-06T20:16:04.442Z,18.63
2022-12-06T20:18:32.099Z,21.33
2022-12-06T20:20:59.179Z,20.60
2022-12-06T20:23:26.383Z,11.80
2022-12-06T20:25:56.327Z,8.83
2022-12-06T20:28:23.442Z,44.70
2022-12-06T20:30:50.681Z,55.63
2022-12-06T20:33:17.879Z,29.13
2022-12-06T20:35:44.948Z,30.30
2022-12-06T20:38:12.083Z,33.03
2022-12-06T20:40:39.214Z,27.13
2022-12-06T20:43:06.281Z,25.97
2022-12-06T20:45:33.431Z,17.67
2022-12-06T20:48:00.754Z,23.47
2022-12-06T20:50:27.850Z,17.83
2022-12-06T20:52:54.983Z,21.63
2022-12-06T20:55:22.088Z,24.07
2022-12-06T20:57:49.165Z,43.27
2022-12-06T21:00:16.938Z,20.70
2022-12-06T21:02:44.074Z,9.83
2022-12-06T21:05:11.235Z,17.77
2022-12-06T21:07:38.375Z,13.63
2022-12-06T21:10:05.753Z,17.53
2022-12-06T21:12:32.906Z,17.20
2022-12-06T21:15:00.087Z,17.83
2022-12-06T21:17:27.192Z,16.40
2022-12-06T21:19:54.271Z,10.67
2022-12-06T21:22:21.388Z,8.40
2022-12-06T21:24:48.547Z,11.07
2022-12-06T21:27:15.615Z,12.60
2022-12-06T21:29:42.738Z,15.53
2022-12-06T21:32:09.814Z,15.03
2022-12-06T21:34:42.886Z,17.23
2022-12-06T21:37:13.302Z,27.37
2022-12-06T21:39:40.769Z,12.10
2022-12-06T21:42:10.934Z,20.30
2022-12-06T21:44:38.038Z,20.20
2022-12-06T21:47:05.159Z,15.33
2022-12-06T21:49:32.238Z,21.23
2022-12-06T21:52:04.602Z,14.73
2022-12-06T21:54:34.621Z,11.27
2022-12-06T21:57:01.750Z,15.13
2022-12-06T21:59:28.852Z,30.77
2022-12-06T22:01:56.032Z,35.57
2022-12-06T22:04:23.199Z,29.43
2022-12-06T22:06:50.296Z,16.83
2022-12-06T22:09:17.368Z,21.80
2022-12-06T22:11:44.925Z,23.57
2022-12-06T22:14:12.013Z,19.60
2022-12-06T22:16:39.213Z,16.17
2022-12-06T22:19:06.350Z,20.77
2022-12-06T22:21:33.612Z,37.53
2022-12-06T22:24:00.751Z,22.00
2022-12-06T22:26:28.647Z,47.03
2022-12-06T22:28:55.758Z,15.27
2022-12-06T22:31:25.899Z,10.27
2022-12-06T22:33:53.300Z,7.37
2022-12-06T22:36:20.739Z,10.60
2022-12-06T22:38:51.139Z,8.83
2022-12-06T22:41:18.488Z,5.93
2022-12-06T22:43:45.800Z,22.83
2022-12-06T22:46:13.969Z,13.50
2022-12-06T22:48:41.270Z,13.27
2022-12-06T22:51:12.062Z,14.23
2022-12-06T22:53:39.821Z,13.70
2022-12-06T22:56:07.071Z,10.87
2022-12-06T22:58:34.255Z,16.17
2022-12-06T23:01:11.764Z,15.13
2022-12-06T23:03:42.886Z,15.50
2022-12-06T23:06:10.065Z,15.60
2022-12-06T23:08:37.243Z,17.17
2022-12-06T23:11:08.613Z,17.70
2022-12-06T23:13:35.723Z,21.33
2022-12-06T23:16:03.756Z,35.73
2022-12-06T23:18:30.936Z,42.47
2022-12-06T23:21:09.978Z,42.17
2022-12-06T23:23:37.162Z,44.50
2022-12-06T23:26:08.149Z,38.13
2022-12-06T23:28:35.403Z,11.57
2022-12-06T23:31:22.843Z,13.40
2022-12-06T23:33:52.662Z,10.40
2022-12-06T23:36:20.545Z,19.80
2022-12-06T23:38:47.655Z,50.47
2022-12-06T23:41:15.863Z,47.70
2022-12-06T23:43:42.980Z,86.90
2022-12-06T23:46:17.748Z,32.37
2022-12-06T23:48:47.974Z,40.57
2022-12-06T23:51:18.877Z,13.73
2022-12-06T23:53:46.036Z,26.53
2022-12-06T23:56:16.711Z,31.77
2022-12-06T23:58:44.081Z,32.60
